sensor_id;sensor_type;location;lat;lon;timestamp;pressure;altitude;pressure_sealevel;temperature;humidity
75513;BME280;64090;49.770;18.760;2023-10-19T00:04:29;96999.43;;;3.33;76.79
75513;BME280;64090;49.770;18.760;2023-10-19T00:21:48;96964.46;;;2.99;77.91
75513;BME280;64090;49.770;18.760;2023-10-19T01:06:48;96900.09;;;2.78;77.45
75513;BME280;64090;49.770;18.760;2023-10-19T01:19:34;96873.81;;;2.75;77.19
75513;BME280;64090;49.770;18.760;2023-10-19T01:50:08;96805.28;;;3.51;77.36
75513;BME280;64090;49.770;18.760;2023-10-19T02:07:29;96798.88;;;3.12;77.37
75513;BME280;64090;49.770;18.760;2023-10-19T02:27:38;96764.34;;;2.58;77.80
75513;BME280;64090;49.770;18.760;2023-10-19T02:40:10;96740.60;;;2.37;78.33
75513;BME280;64090;49.770;18.760;2023-10-19T03:00:52;96702.30;;;2.42;79.13
75513;BME280;64090;49.770;18.760;2023-10-19T03:04:55;96701.09;;;2.48;79.28
75513;BME280;64090;49.770;18.760;2023-10-19T03:08:55;96691.32;;;2.61;80.11
75513;BME280;64090;49.770;18.760;2023-10-19T03:25:30;96662.48;;;3.28;79.34
75513;BME280;64090;49.770;18.760;2023-10-19T04:01:29;96634.83;;;4.90;77.91
75513;BME280;64090;49.770;18.760;2023-10-19T04:09:56;96620.05;;;5.20;78.26
75513;BME280;64090;49.770;18.760;2023-10-19T04:19:21;96596.55;;;5.34;78.81
75513;BME280;64090;49.770;18.760;2023-10-19T04:32:58;96555.28;;;5.18;78.12
75513;BME280;64090;49.770;18.760;2023-10-19T04:50:42;96542.41;;;4.95;78.09
75513;BME280;64090;49.770;18.760;2023-10-19T05:03:13;96538.10;;;4.90;78.37
75513;BME280;64090;49.770;18.760;2023-10-19T05:20:03;96525.08;;;5.03;77.28
75513;BME280;64090;49.770;18.760;2023-10-19T05:51:36;96497.34;;;5.82;78.59
75513;BME280;64090;49.770;18.760;2023-10-19T06:47:46;96438.27;;;9.47;76.75
75513;BME280;64090;49.770;18.760;2023-10-19T06:53:35;96425.73;;;9.86;76.09
75513;BME280;64090;49.770;18.760;2023-10-19T06:57:48;96413.44;;;10.13;75.83
75513;BME280;64090;49.770;18.760;2023-10-19T07:01:48;96417.16;;;10.31;75.40
75513;BME280;64090;49.770;18.760;2023-10-19T07:05:42;96410.90;;;10.47;75.28
75513;BME280;64090;49.770;18.760;2023-10-19T07:14:32;96402.94;;;10.87;74.64
75513;BME280;64090;49.770;18.760;2023-10-19T07:18:38;96384.23;;;11.03;74.66
75513;BME280;64090;49.770;18.760;2023-10-19T07:22:48;96370.61;;;11.21;74.39
75513;BME280;64090;49.770;18.760;2023-10-19T07:31:45;96356.05;;;11.56;73.61
75513;BME280;64090;49.770;18.760;2023-10-19T07:39:48;96350.13;;;11.91;73.09
75513;BME280;64090;49.770;18.760;2023-10-19T07:43:31;96324.91;;;12.11;72.14
75513;BME280;64090;49.770;18.760;2023-10-19T07:48:03;96333.98;;;12.33;72.05
75513;BME280;64090;49.770;18.760;2023-10-19T07:51:51;96345.02;;;12.44;71.72
75513;BME280;64090;49.770;18.760;2023-10-19T07:55:17;96347.63;;;12.43;71.59
75513;BME280;64090;49.770;18.760;2023-10-19T07:58:44;96351.42;;;12.40;71.66
75513;BME280;64090;49.770;18.760;2023-10-19T08:02:20;96348.16;;;12.23;72.00
75513;BME280;64090;49.770;18.760;2023-10-19T08:05:58;96340.63;;;12.11;72.57
75513;BME280;64090;49.770;18.760;2023-10-19T08:09:46;96329.19;;;12.12;72.74
75513;BME280;64090;49.770;18.760;2023-10-19T08:13:19;96327.14;;;12.21;72.69
75513;BME280;64090;49.770;18.760;2023-10-19T08:17:09;96324.45;;;12.27;72.17
75513;BME280;64090;49.770;18.760;2023-10-19T08:20:40;96329.46;;;12.20;72.49
75513;BME280;64090;49.770;18.760;2023-10-19T08:24:15;96335.76;;;12.09;72.96
75513;BME280;64090;49.770;18.760;2023-10-19T08:27:56;96340.09;;;11.92;73.52
75513;BME280;64090;49.770;18.760;2023-10-19T08:32:17;96346.47;;;11.68;74.49
75513;BME280;64090;49.770;18.760;2023-10-19T08:36:02;96343.02;;;11.52;75.13
75513;BME280;64090;49.770;18.760;2023-10-19T08:39:56;96349.58;;;11.53;75.88
75513;BME280;64090;49.770;18.760;2023-10-19T08:44:03;96340.19;;;11.72;75.44
75513;BME280;64090;49.770;18.760;2023-10-19T08:47:56;96335.14;;;11.78;75.78
75513;BME280;64090;49.770;18.760;2023-10-19T08:51:56;96330.36;;;11.79;75.84
75513;BME280;64090;49.770;18.760;2023-10-19T08:55:32;96323.50;;;11.71;76.44
75513;BME280;64090;49.770;18.760;2023-10-19T08:59:39;96323.04;;;11.59;76.64
75513;BME280;64090;49.770;18.760;2023-10-19T09:03:13;96312.10;;;11.57;76.94
75513;BME280;64090;49.770;18.760;2023-10-19T09:06:58;96293.70;;;11.62;77.19
75513;BME280;64090;49.770;18.760;2023-10-19T09:10:40;96300.02;;;11.70;77.25
75513;BME280;64090;49.770;18.760;2023-10-19T09:14:34;96303.64;;;11.80;77.27
75513;BME280;64090;49.770;18.760;2023-10-19T09:18:35;96295.67;;;11.88;76.97
75513;BME280;64090;49.770;18.760;2023-10-19T09:25:14;96315.16;;;11.92;77.14
75513;BME280;64090;49.770;18.760;2023-10-19T09:28:57;96300.51;;;11.91;77.08
75513;BME280;64090;49.770;18.760;2023-10-19T09:32:38;96297.95;;;11.92;76.77
75513;BME280;64090;49.770;18.760;2023-10-19T09:35:50;96303.84;;;11.89;76.77
75513;BME280;64090;49.770;18.760;2023-10-19T09:39:37;96315.27;;;11.88;77.08
75513;BME280;64090;49.770;18.760;2023-10-19T09:43:14;96321.30;;;11.94;76.93
75513;BME280;64090;49.770;18.760;2023-10-19T09:46:35;96312.11;;;11.96;77.03
75513;BME280;64090;49.770;18.760;2023-10-19T09:50:45;96305.89;;;11.96;77.13
75513;BME280;64090;49.770;18.760;2023-10-19T09:54:34;96308.33;;;12.00;77.33
75513;BME280;64090;49.770;18.760;2023-10-19T09:58:18;96309.06;;;12.08;77.39
75513;BME280;64090;49.770;18.760;2023-10-19T10:02:07;96308.94;;;12.17;77.33
75513;BME280;64090;49.770;18.760;2023-10-19T10:06:06;96306.19;;;12.25;77.42
75513;BME280;64090;49.770;18.760;2023-10-19T10:09:35;96302.70;;;12.33;77.18
75513;BME280;64090;49.770;18.760;2023-10-19T10:17:49;96288.77;;;12.52;76.67
75513;BME280;64090;49.770;18.760;2023-10-19T10:21:37;96280.18;;;12.68;76.57
75513;BME280;64090;49.770;18.760;2023-10-19T10:25:03;96274.95;;;12.81;76.21
75513;BME280;64090;49.770;18.760;2023-10-19T10:28:29;96269.26;;;12.90;75.76
75513;BME280;64090;49.770;18.760;2023-10-19T10:32:08;96256.33;;;12.94;75.31
75513;BME280;64090;49.770;18.760;2023-10-19T10:36:01;96238.33;;;12.99;75.23
75513;BME280;64090;49.770;18.760;2023-10-19T10:39:37;96221.09;;;13.10;74.95
75513;BME280;64090;49.770;18.760;2023-10-19T10:43:28;96200.99;;;13.30;74.59
75513;BME280;64090;49.770;18.760;2023-10-19T10:47:19;96196.11;;;13.52;74.01
75513;BME280;64090;49.770;18.760;2023-10-19T10:50:49;96189.65;;;13.71;73.37
75513;BME280;64090;49.770;18.760;2023-10-19T10:54:12;96189.00;;;13.88;72.90
75513;BME280;64090;49.770;18.760;2023-10-19T10:57:38;96189.72;;;14.09;72.87
75513;BME280;64090;49.770;18.760;2023-10-19T11:01:12;96179.52;;;14.28;72.89
75513;BME280;64090;49.770;18.760;2023-10-19T11:04:43;96164.80;;;14.49;72.09
75513;BME280;64090;49.770;18.760;2023-10-19T11:08:28;96159.31;;;14.55;71.29
75513;BME280;64090;49.770;18.760;2023-10-19T11:12:15;96146.84;;;14.62;71.03
75513;BME280;64090;49.770;18.760;2023-10-19T11:16:06;96145.11;;;14.75;70.81
75513;BME280;64090;49.770;18.760;2023-10-19T11:19:39;96145.46;;;14.85;70.41
75513;BME280;64090;49.770;18.760;2023-10-19T11:23:13;96135.54;;;14.91;69.51
75513;BME280;64090;49.770;18.760;2023-10-19T11:26:41;96127.42;;;14.88;69.28
75513;BME280;64090;49.770;18.760;2023-10-19T11:30:22;96114.63;;;14.90;69.43
75513;BME280;64090;49.770;18.760;2023-10-19T11:34:14;96109.77;;;14.88;69.49
75513;BME280;64090;49.770;18.760;2023-10-19T11:38:06;96111.23;;;14.96;69.86
75513;BME280;64090;49.770;18.760;2023-10-19T11:41:39;96113.40;;;15.14;69.16
75513;BME280;64090;49.770;18.760;2023-10-19T11:44:52;96109.17;;;15.27;68.95
75513;BME280;64090;49.770;18.760;2023-10-19T11:48:53;96106.92;;;15.38;68.55
75513;BME280;64090;49.770;18.760;2023-10-19T11:52:33;96100.77;;;15.46;68.48
75513;BME280;64090;49.770;18.760;2023-10-19T11:55:59;96096.45;;;15.51;68.19
75513;BME280;64090;49.770;18.760;2023-10-19T11:59:32;96109.45;;;15.54;68.02
75513;BME280;64090;49.770;18.760;2023-10-19T12:02:57;96111.49;;;15.53;68.05
75513;BME280;64090;49.770;18.760;2023-10-19T12:06:24;96110.20;;;15.52;67.93
75513;BME280;64090;49.770;18.760;2023-10-19T12:09:53;96111.88;;;15.41;67.85
75513;BME280;64090;49.770;18.760;2023-10-19T12:13:39;96100.98;;;15.15;68.37
75513;BME280;64090;49.770;18.760;2023-10-19T12:17:50;96096.94;;;14.81;69.36
75513;BME280;64090;49.770;18.760;2023-10-19T12:21:21;96090.95;;;14.54;69.95
75513;BME280;64090;49.770;18.760;2023-10-19T12:24:41;96092.09;;;14.44;70.43
75513;BME280;64090;49.770;18.760;2023-10-19T12:28:14;96086.18;;;14.20;71.01
75513;BME280;64090;49.770;18.760;2023-10-19T12:31:38;96084.12;;;14.05;71.55
75513;BME280;64090;49.770;18.760;2023-10-19T12:35:12;96087.38;;;13.92;71.86
75513;BME280;64090;49.770;18.760;2023-10-19T12:38:43;96085.92;;;13.78;72.41
75513;BME280;64090;49.770;18.760;2023-10-19T12:42:28;96082.23;;;13.74;72.92
75513;BME280;64090;49.770;18.760;2023-10-19T12:46:16;96082.40;;;13.69;73.52
75513;BME280;64090;49.770;18.760;2023-10-19T12:49:58;96077.42;;;13.68;73.64
75513;BME280;64090;49.770;18.760;2023-10-19T12:53:33;96074.98;;;13.70;73.87
75513;BME280;64090;49.770;18.760;2023-10-19T12:57:21;96073.43;;;13.73;74.21
75513;BME280;64090;49.770;18.760;2023-10-19T13:00:52;96075.30;;;13.74;74.22
75513;BME280;64090;49.770;18.760;2023-10-19T13:04:40;96066.06;;;13.71;74.43
75513;BME280;64090;49.770;18.760;2023-10-19T13:08:43;96056.27;;;13.69;74.42
75513;BME280;64090;49.770;18.760;2023-10-19T13:12:28;96059.27;;;13.66;74.39
75513;BME280;64090;49.770;18.760;2023-10-19T13:16:01;96054.95;;;13.62;74.51
75513;BME280;64090;49.770;18.760;2023-10-19T13:20:02;96055.16;;;13.61;74.66
75513;BME280;64090;49.770;18.760;2023-10-19T13:23:42;96043.77;;;13.64;74.59
75513;BME280;64090;49.770;18.760;2023-10-19T13:27:09;96030.81;;;13.62;74.72
75513;BME280;64090;49.770;18.760;2023-10-19T13:33:48;96021.98;;;13.63;75.22
75513;BME280;64090;49.770;18.760;2023-10-19T13:37:33;96011.85;;;13.63;75.21
75513;BME280;64090;49.770;18.760;2023-10-19T13:41:31;96000.26;;;13.63;75.55
75513;BME280;64090;49.770;18.760;2023-10-19T13:45:53;95991.94;;;13.64;75.62
75513;BME280;64090;49.770;18.760;2023-10-19T13:49:48;95979.55;;;13.59;76.07
75513;BME280;64090;49.770;18.760;2023-10-19T13:53:47;95973.51;;;13.53;76.34
75513;BME280;64090;49.770;18.760;2023-10-19T13:57:25;95974.16;;;13.45;76.63
75513;BME280;64090;49.770;18.760;2023-10-19T14:01:10;95978.31;;;13.39;77.08
75513;BME280;64090;49.770;18.760;2023-10-19T14:05:04;95972.49;;;13.35;77.11
75513;BME280;64090;49.770;18.760;2023-10-19T14:09:06;95966.19;;;13.29;77.47
75513;BME280;64090;49.770;18.760;2023-10-19T14:12:58;95961.04;;;13.21;77.80
75513;BME280;64090;49.770;18.760;2023-10-19T14:16:59;95957.23;;;13.12;78.37
75513;BME280;64090;49.770;18.760;2023-10-19T14:21:16;95960.59;;;13.03;78.84
75513;BME280;64090;49.770;18.760;2023-10-19T14:25:10;95962.23;;;12.94;79.02
75513;BME280;64090;49.770;18.760;2023-10-19T14:29:28;95953.58;;;12.90;79.33
75513;BME280;64090;49.770;18.760;2023-10-19T14:34:15;95951.90;;;12.83;79.61
75513;BME280;64090;49.770;18.760;2023-10-19T14:38:20;95945.98;;;12.82;79.66
75513;BME280;64090;49.770;18.760;2023-10-19T14:42:19;95949.98;;;12.80;79.84
75513;BME280;64090;49.770;18.760;2023-10-19T14:46:15;95958.19;;;12.77;80.08
75513;BME280;64090;49.770;18.760;2023-10-19T14:50:24;95963.84;;;12.75;80.10
75513;BME280;64090;49.770;18.760;2023-10-19T14:54:06;95965.54;;;12.70;80.47
75513;BME280;64090;49.770;18.760;2023-10-19T14:58:03;95965.96;;;12.71;80.75
75513;BME280;64090;49.770;18.760;2023-10-19T15:01:51;95973.69;;;12.70;80.74
75513;BME280;64090;49.770;18.760;2023-10-19T15:05:44;95965.96;;;12.69;80.87
75513;BME280;64090;49.770;18.760;2023-10-19T15:09:55;95965.68;;;12.67;81.12
75513;BME280;64090;49.770;18.760;2023-10-19T15:14:14;95961.77;;;12.64;81.30
75513;BME280;64090;49.770;18.760;2023-10-19T15:18:26;95959.59;;;12.60;81.30
75513;BME280;64090;49.770;18.760;2023-10-19T15:22:34;95956.32;;;12.58;81.50
75513;BME280;64090;49.770;18.760;2023-10-19T15:26:17;95958.66;;;12.53;82.24
75513;BME280;64090;49.770;18.760;2023-10-19T15:30:02;95961.75;;;12.51;82.17
75513;BME280;64090;49.770;18.760;2023-10-19T15:34:13;95967.12;;;12.47;82.75
75513;BME280;64090;49.770;18.760;2023-10-19T15:38:10;95959.70;;;12.46;82.89
75513;BME280;64090;49.770;18.760;2023-10-19T15:42:19;95956.27;;;12.41;83.11
75513;BME280;64090;49.770;18.760;2023-10-19T15:45:51;95955.06;;;12.34;83.18
75513;BME280;64090;49.770;18.760;2023-10-19T15:49:48;95957.45;;;12.30;83.27
75513;BME280;64090;49.770;18.760;2023-10-19T15:54:04;95956.36;;;12.27;83.58
75513;BME280;64090;49.770;18.760;2023-10-19T15:58:17;95953.28;;;12.26;83.84
75513;BME280;64090;49.770;18.760;2023-10-19T16:02:50;95948.56;;;12.23;84.19
75513;BME280;64090;49.770;18.760;2023-10-19T16:06:22;95944.15;;;12.23;83.88
75513;BME280;64090;49.770;18.760;2023-10-19T16:11:05;95937.66;;;12.24;84.08
75513;BME280;64090;49.770;18.760;2023-10-19T16:14:35;95936.23;;;12.26;84.26
75513;BME280;64090;49.770;18.760;2023-10-19T16:18:28;95932.71;;;12.27;84.38
75513;BME280;64090;49.770;18.760;2023-10-19T16:22:42;95930.10;;;12.28;84.32
75513;BME280;64090;49.770;18.760;2023-10-19T16:26:10;95929.95;;;12.29;84.50
75513;BME280;64090;49.770;18.760;2023-10-19T16:29:59;95928.31;;;12.33;84.68
75513;BME280;64090;49.770;18.760;2023-10-19T16:33:30;95926.88;;;12.35;84.42
75513;BME280;64090;49.770;18.760;2023-10-19T16:37:18;95932.75;;;12.37;84.47
75513;BME280;64090;49.770;18.760;2023-10-19T16:41:15;95928.60;;;12.41;84.82
75513;BME280;64090;49.770;18.760;2023-10-19T16:45:17;95934.44;;;12.46;84.79
75513;BME280;64090;49.770;18.760;2023-10-19T16:48:46;95934.56;;;12.48;84.67
75513;BME280;64090;49.770;18.760;2023-10-19T16:52:35;95938.13;;;12.50;85.29
75513;BME280;64090;49.770;18.760;2023-10-19T16:56:08;95942.34;;;12.53;85.58
75513;BME280;64090;49.770;18.760;2023-10-19T17:00:03;95946.33;;;12.51;85.64
75513;BME280;64090;49.770;18.760;2023-10-19T17:03:51;95941.74;;;12.48;85.72
75513;BME280;64090;49.770;18.760;2023-10-19T17:07:26;95933.15;;;12.46;86.05
75513;BME280;64090;49.770;18.760;2023-10-19T17:11:21;95925.84;;;12.43;86.37
75513;BME280;64090;49.770;18.760;2023-10-19T17:14:49;95916.41;;;12.41;87.04
75513;BME280;64090;49.770;18.760;2023-10-19T17:18:24;95908.52;;;12.41;87.49
75513;BME280;64090;49.770;18.760;2023-10-19T17:24:42;95910.21;;;12.40;87.82
75513;BME280;64090;49.770;18.760;2023-10-19T17:28:26;95905.73;;;12.38;88.39
75513;BME280;64090;49.770;18.760;2023-10-19T17:32:08;95900.94;;;12.39;88.16
75513;BME280;64090;49.770;18.760;2023-10-19T17:35:44;95903.35;;;12.41;88.63
75513;BME280;64090;49.770;18.760;2023-10-19T17:39:13;95896.58;;;12.42;88.53
75513;BME280;64090;49.770;18.760;2023-10-19T17:42:46;95897.70;;;12.44;88.83
75513;BME280;64090;49.770;18.760;2023-10-19T17:46:46;95891.73;;;12.44;88.55
75513;BME280;64090;49.770;18.760;2023-10-19T17:52:07;95891.96;;;12.48;88.40
75513;BME280;64090;49.770;18.760;2023-10-19T17:55:50;95901.98;;;12.50;88.51
75513;BME280;64090;49.770;18.760;2023-10-19T17:59:28;95910.04;;;12.48;88.91
75513;BME280;64090;49.770;18.760;2023-10-19T18:03:01;95903.54;;;12.51;89.00
75513;BME280;64090;49.770;18.760;2023-10-19T18:06:52;95911.48;;;12.52;89.13
75513;BME280;64090;49.770;18.760;2023-10-19T18:10:49;95909.83;;;12.51;89.41
75513;BME280;64090;49.770;18.760;2023-10-19T18:14:55;95895.43;;;12.51;89.69
75513;BME280;64090;49.770;18.760;2023-10-19T18:18:21;95889.19;;;12.51;89.96
75513;BME280;64090;49.770;18.760;2023-10-19T18:22:28;95882.96;;;12.51;89.87
75513;BME280;64090;49.770;18.760;2023-10-19T18:26:10;95874.16;;;12.52;90.05
75513;BME280;64090;49.770;18.760;2023-10-19T18:32:33;95878.91;;;12.55;89.44
75513;BME280;64090;49.770;18.760;2023-10-19T18:36:01;95879.98;;;12.53;89.45
75513;BME280;64090;49.770;18.760;2023-10-19T18:40:00;95890.90;;;12.51;89.61
75513;BME280;64090;49.770;18.760;2023-10-19T18:46:33;95886.05;;;12.53;89.22
75513;BME280;64090;49.770;18.760;2023-10-19T18:50:58;95887.60;;;12.53;89.15
75513;BME280;64090;49.770;18.760;2023-10-19T18:54:34;95893.52;;;12.50;89.38
75513;BME280;64090;49.770;18.760;2023-10-19T18:58:46;95896.48;;;12.50;89.35
75513;BME280;64090;49.770;18.760;2023-10-19T19:05:14;95900.24;;;12.56;89.71
75513;BME280;64090;49.770;18.760;2023-10-19T19:09:18;95916.52;;;12.61;89.55
75513;BME280;64090;49.770;18.760;2023-10-19T19:13:02;95920.56;;;12.45;87.91
75513;BME280;64090;49.770;18.760;2023-10-19T19:16:30;95904.29;;;11.72;88.02
75513;BME280;64090;49.770;18.760;2023-10-19T19:20:12;95905.65;;;11.27;89.10
75513;BME280;64090;49.770;18.760;2023-10-19T19:26:56;95915.12;;;10.71;90.82
75513;BME280;64090;49.770;18.760;2023-10-19T19:31:23;95905.05;;;10.42;91.68
75513;BME280;64090;49.770;18.760;2023-10-19T19:35:40;95903.56;;;10.24;91.82
75513;BME280;64090;49.770;18.760;2023-10-19T19:40:15;95906.97;;;10.21;92.17
75513;BME280;64090;49.770;18.760;2023-10-19T19:44:30;95887.26;;;10.10;92.56
75513;BME280;64090;49.770;18.760;2023-10-19T19:52:19;95889.39;;;9.91;92.13
75513;BME280;64090;49.770;18.760;2023-10-19T20:15:17;95862.52;;;9.31;94.04
75513;BME280;64090;49.770;18.760;2023-10-19T20:28:23;95868.20;;;9.32;94.55
75513;BME280;64090;49.770;18.760;2023-10-19T20:37:45;95841.98;;;9.39;93.44
75513;BME280;64090;49.770;18.760;2023-10-19T20:41:55;95828.36;;;9.40;93.57
75513;BME280;64090;49.770;18.760;2023-10-19T20:46:17;95825.39;;;9.39;93.84
75513;BME280;64090;49.770;18.760;2023-10-19T20:50:44;95814.33;;;9.37;93.69
75513;BME280;64090;49.770;18.760;2023-10-19T21:04:02;95802.03;;;9.18;93.50
75513;BME280;64090;49.770;18.760;2023-10-19T21:08:28;95787.42;;;9.04;93.45
75513;BME280;64090;49.770;18.760;2023-10-19T21:12:43;95764.64;;;8.92;93.30
75513;BME280;64090;49.770;18.760;2023-10-19T21:17:25;95757.72;;;8.83;93.87
75513;BME280;64090;49.770;18.760;2023-10-19T21:21:41;95746.21;;;8.78;93.97
75513;BME280;64090;49.770;18.760;2023-10-19T21:34:34;95725.94;;;9.04;95.70
75513;BME280;64090;49.770;18.760;2023-10-19T21:52:18;95710.64;;;10.69;98.75
75513;BME280;64090;49.770;18.760;2023-10-19T21:56:36;95705.88;;;10.99;98.78
75513;BME280;64090;49.770;18.760;2023-10-19T22:00:53;95697.23;;;11.28;98.81
75513;BME280;64090;49.770;18.760;2023-10-19T22:04:49;95690.92;;;11.50;98.20
75513;BME280;64090;49.770;18.760;2023-10-19T22:08:53;95691.18;;;11.66;97.93
75513;BME280;64090;49.770;18.760;2023-10-19T22:20:35;95667.46;;;12.03;97.11
75513;BME280;64090;49.770;18.760;2023-10-19T22:24:40;95654.95;;;12.19;97.41
75513;BME280;64090;49.770;18.760;2023-10-19T22:28:26;95636.60;;;12.31;97.34
75513;BME280;64090;49.770;18.760;2023-10-19T22:32:36;95625.98;;;12.44;96.92
75513;BME280;64090;49.770;18.760;2023-10-19T22:36:25;95635.73;;;12.56;96.66
75513;BME280;64090;49.770;18.760;2023-10-19T22:40:16;95634.68;;;12.66;96.22
75513;BME280;64090;49.770;18.760;2023-10-19T22:43:46;95637.21;;;12.75;95.90
75513;BME280;64090;49.770;18.760;2023-10-19T22:47:15;95641.40;;;12.82;95.60
75513;BME280;64090;49.770;18.760;2023-10-19T22:50:50;95643.16;;;12.86;95.17
75513;BME280;64090;49.770;18.760;2023-10-19T22:54:15;95642.95;;;12.89;95.05
75513;BME280;64090;49.770;18.760;2023-10-19T22:57:41;95644.48;;;12.92;94.88
75513;BME280;64090;49.770;18.760;2023-10-19T23:01:29;95648.89;;;12.95;94.78
75513;BME280;64090;49.770;18.760;2023-10-19T23:04:59;95651.55;;;12.98;94.63
75513;BME280;64090;49.770;18.760;2023-10-19T23:08:29;95651.27;;;13.02;94.34
75513;BME280;64090;49.770;18.760;2023-10-19T23:12:06;95648.08;;;13.05;93.99
75513;BME280;64090;49.770;18.760;2023-10-19T23:16:03;95646.51;;;13.05;93.76
75513;BME280;64090;49.770;18.760;2023-10-19T23:27:53;95630.79;;;13.05;93.46
75513;BME280;64090;49.770;18.760;2023-10-19T23:31:37;95637.06;;;13.06;93.40
75513;BME280;64090;49.770;18.760;2023-10-19T23:35:19;95636.61;;;13.12;93.57
75513;BME280;64090;49.770;18.760;2023-10-19T23:39:03;95643.09;;;13.18;93.30
75513;BME280;64090;49.770;18.760;2023-10-19T23:42:58;95655.35;;;13.23;93.30
75513;BME280;64090;49.770;18.760;2023-10-19T23:46:46;95650.98;;;13.28;93.25
75513;BME280;64090;49.770;18.760;2023-10-19T23:50:32;95644.45;;;13.33;93.04
75513;BME280;64090;49.770;18.760;2023-10-19T23:59:17;95644.15;;;13.39;92.81
